createdAt,value
2018-11-26T00:03:07.956Z,95
2018-11-26T00:08:30.342Z,95
2018-11-26T00:13:58.705Z,95
2018-11-26T00:19:27.514Z,95
2018-11-26T00:25:00.803Z,95
2018-11-26T00:30:22.898Z,95
2018-11-26T00:35:50.376Z,95
2018-11-26T00:41:17.946Z,95
2018-11-26T00:46:45.145Z,95
2018-11-26T00:52:13.516Z,95
2018-11-26T00:57:40.981Z,95
2018-11-26T01:03:09.319Z,95
2018-11-26T01:08:37.965Z,95
2018-11-26T01:14:06.118Z,95
2018-11-26T01:19:34.973Z,95
2018-11-26T01:25:03.187Z,95
2018-11-26T01:30:35.446Z,95
2018-11-26T01:35:58.730Z,95
2018-11-26T01:41:27.146Z,95
2018-11-26T01:46:54.786Z,95
2018-11-26T01:52:21.969Z,95
2018-11-26T01:57:50.364Z,95
2018-11-26T02:03:18.984Z,95
2018-11-26T02:08:51.457Z,95
2018-11-26T02:14:13.486Z,95
2018-11-26T02:19:41.901Z,95
2018-11-26T02:25:10.335Z,95
2018-11-26T02:30:38.632Z,95
2018-11-26T02:36:11.071Z,95
2018-11-26T02:41:38.481Z,95
2018-11-26T02:47:01.824Z,95
2018-11-26T02:52:29.451Z,95
2018-11-26T02:57:56.559Z,95
2018-11-26T03:03:29.212Z,95
2018-11-26T03:08:52.307Z,95
2018-11-26T03:14:19.686Z,95
2018-11-26T03:19:47.080Z,95
2018-11-26T03:25:15.588Z,95
2018-11-26T03:30:47.873Z,95
2018-11-26T03:36:15.535Z,95
2018-11-26T03:41:43.603Z,95
2018-11-26T03:47:12.015Z,95
2018-11-26T03:52:40.363Z,95
2018-11-26T03:58:02.740Z,95
2018-11-26T04:03:31.440Z,95
2018-11-26T04:09:04.501Z,95
2018-11-26T04:14:27.181Z,95
2018-11-26T04:19:54.222Z,95
2018-11-26T04:25:21.645Z,95
2018-11-26T04:30:49.197Z,95
2018-11-26T04:36:22.886Z,95
2018-11-26T04:41:45.995Z,94
2018-11-26T04:47:13.022Z,94
2018-11-26T04:52:46.832Z,94
2018-11-26T04:58:13.742Z,94
2018-11-26T05:03:37.151Z,94
2018-11-26T05:09:04.732Z,95
2018-11-26T05:14:32.876Z,95
2018-11-26T05:20:00.334Z,95
2018-11-26T05:25:28.592Z,95
2018-11-26T05:30:55.898Z,95
2018-11-26T05:36:23.484Z,95
2018-11-26T05:41:50.566Z,95
2018-11-26T05:47:23.917Z,95
2018-11-26T05:52:47.291Z,94
2018-11-26T05:58:15.561Z,94
2018-11-26T06:03:48.934Z,94
2018-11-26T06:09:12.219Z,95
2018-11-26T06:14:39.535Z,95
2018-11-26T06:20:07.842Z,95
2018-11-26T06:25:40.523Z,95
2018-11-26T06:31:02.373Z,95
2018-11-26T06:36:35.650Z,95
2018-11-26T06:42:04.242Z,95
2018-11-26T06:47:26.242Z,95
2018-11-26T06:52:53.847Z,95
2018-11-26T06:58:26.101Z,95
2018-11-26T07:03:48.039Z,95
2018-11-26T07:09:15.339Z,95
2018-11-26T07:14:43.546Z,95
2018-11-26T07:20:11.852Z,94
2018-11-26T07:25:40.315Z,94
2018-11-26T07:31:07.364Z,94
2018-11-26T07:36:35.599Z,94
2018-11-26T07:42:03.097Z,94
2018-11-26T07:47:30.747Z,94
2018-11-26T07:53:02.306Z,94
2018-11-26T07:58:24.604Z,94
2018-11-26T08:03:53.330Z,94
2018-11-26T08:09:21.339Z,94
2018-11-26T08:14:49.494Z,94
2018-11-26T08:20:22.026Z,94
2018-11-26T08:25:43.997Z,94
2018-11-26T08:47:35.803Z,94
2018-11-26T08:53:04.368Z,94
2018-11-26T08:58:32.656Z,94
2018-11-26T09:03:59.717Z,94
2018-11-26T09:09:33.108Z,94
2018-11-26T09:14:55.542Z,94
2018-11-26T09:20:28.872Z,94
2018-11-26T09:25:55.920Z,94
2018-11-26T09:31:18.514Z,94
2018-11-26T09:36:51.538Z,94
2018-11-26T09:42:13.842Z,94
2018-11-26T09:47:42.150Z,94
2018-11-26T09:53:09.488Z,94
2018-11-26T09:58:37.906Z,94
2018-11-26T10:04:06.421Z,94
2018-11-26T10:09:38.787Z,93
2018-11-26T10:15:02.532Z,93
2018-11-26T10:20:34.232Z,93
2018-11-26T10:25:56.819Z,93
2018-11-26T10:31:30.593Z,93
2018-11-26T10:36:57.609Z,93
2018-11-26T10:42:20.659Z,93
2018-11-26T10:47:48.603Z,93
2018-11-26T10:53:16.710Z,93
2018-11-26T10:58:44.833Z,93
2018-11-26T11:04:12.258Z,93
2018-11-26T11:09:39.632Z,93
2018-11-26T11:15:07.334Z,93
2018-11-26T11:20:40.126Z,93
2018-11-26T11:26:02.885Z,93
2018-11-26T11:31:35.350Z,93
2018-11-26T11:36:58.134Z,93
2018-11-26T11:42:26.330Z,93
2018-11-26T11:47:53.496Z,93
2018-11-26T11:53:21.098Z,93
2018-11-26T11:58:48.264Z,93
2018-11-26T12:04:15.970Z,92
2018-11-26T12:09:44.724Z,92
2018-11-26T12:15:11.474Z,92
2018-11-26T12:20:44.175Z,92
2018-11-26T12:26:06.360Z,92
2018-11-26T12:31:34.075Z,92
2018-11-26T12:37:02.416Z,92
2018-11-26T12:42:35.585Z,92
2018-11-26T12:47:58.239Z,92
2018-11-26T12:53:25.600Z,92
2018-11-26T12:58:57.775Z,92
2018-11-26T13:04:20.258Z,92
2018-11-26T13:09:47.818Z,92
2018-11-26T13:15:20.934Z,92
2018-11-26T13:20:49.296Z,92
2018-11-26T13:26:12.955Z,92
2018-11-26T13:31:40.100Z,92
2018-11-26T13:37:07.435Z,92
2018-11-26T13:42:39.779Z,92
2018-11-26T13:48:07.750Z,92
2018-11-26T13:53:35.627Z,91
2018-11-26T13:58:59.226Z,91
2018-11-26T14:04:27.379Z,91
2018-11-26T14:09:55.803Z,91
2018-11-26T14:15:23.146Z,91
2018-11-26T14:20:55.794Z,91
2018-11-26T14:26:17.889Z,91
2018-11-26T14:31:45.558Z,91
2018-11-26T14:37:12.652Z,91
2018-11-26T14:42:41.165Z,91
2018-11-26T14:48:08.669Z,91
2018-11-26T14:53:35.795Z,91
2018-11-26T14:59:09.178Z,91
2018-11-26T15:04:31.516Z,91
2018-11-26T15:10:00.119Z,91
2018-11-26T15:15:28.451Z,91
2018-11-26T15:20:55.536Z,91
2018-11-26T15:26:22.936Z,91
2018-11-26T15:37:19.652Z,91
2018-11-26T15:42:46.972Z,91
2018-11-26T15:48:20.649Z,91
2018-11-26T15:53:48.952Z,91
2018-11-26T15:59:12.677Z,91
2018-11-26T16:04:40.265Z,91
2018-11-26T16:10:07.833Z,91
2018-11-26T16:15:35.898Z,90
2018-11-26T16:21:03.232Z,90
2018-11-26T16:26:30.835Z,90
2018-11-26T16:32:03.869Z,90
2018-11-26T16:37:31.210Z,90
2018-11-26T16:42:53.958Z,90
2018-11-26T16:48:26.844Z,90
2018-11-26T16:53:50.337Z,90
2018-11-26T16:59:18.863Z,90
2018-11-26T17:04:45.742Z,90
2018-11-26T17:10:13.121Z,89
2018-11-26T17:15:46.386Z,89
2018-11-26T17:21:14.688Z,89
2018-11-26T17:26:43.299Z,89
2018-11-26T17:32:06.319Z,89
2018-11-26T17:37:35.031Z,89
2018-11-26T17:43:07.250Z,89
2018-11-26T17:48:29.263Z,89
2018-11-26T17:54:01.533Z,89
2018-11-26T17:59:24.869Z,89
2018-11-26T18:04:57.134Z,89
2018-11-26T18:10:19.401Z,89
2018-11-26T18:15:46.741Z,88
2018-11-26T18:21:14.049Z,88
2018-11-26T18:26:42.322Z,88
2018-11-26T18:32:10.717Z,88
2018-11-26T18:37:39.261Z,88
2018-11-26T18:43:07.360Z,88
2018-11-26T18:48:35.574Z,88
2018-11-26T18:54:07.903Z,88
2018-11-26T18:59:36.214Z,88
2018-11-26T19:04:58.462Z,88
2018-11-26T19:10:31.787Z,88
2018-11-26T19:15:55.055Z,88
2018-11-26T19:21:27.352Z,88
2018-11-26T19:26:50.883Z,88
2018-11-26T19:32:19.182Z,88
2018-11-26T19:37:47.230Z,88
2018-11-26T19:43:19.544Z,88
2018-11-26T19:48:42.852Z,88
2018-11-26T19:54:10.374Z,88
2018-11-26T19:59:42.431Z,88
2018-11-26T20:05:04.926Z,88
2018-11-26T20:10:32.995Z,87
2018-11-26T20:16:05.375Z,88
2018-11-26T20:21:27.591Z,88
2018-11-26T20:26:54.894Z,88
2018-11-26T20:32:23.254Z,88
2018-11-26T20:37:51.457Z,87
2018-11-26T20:43:18.692Z,87
2018-11-26T20:48:47.004Z,88
2018-11-26T20:54:14.516Z,88
2018-11-26T20:59:41.719Z,88
2018-11-26T21:05:09.958Z,88
2018-11-26T21:10:38.008Z,88
2018-11-26T21:16:06.203Z,88
2018-11-26T21:21:39.409Z,88
2018-11-26T21:27:02.600Z,88
2018-11-26T21:32:30.833Z,88
2018-11-26T21:37:59.083Z,88
2018-11-26T21:43:26.259Z,88
2018-11-26T21:48:53.785Z,88
2018-11-26T21:54:21.662Z,88
2018-11-26T21:59:49.814Z,87
2018-11-26T22:05:18.077Z,87
2018-11-26T22:10:46.408Z,87
2018-11-26T22:16:14.312Z,87
2018-11-26T22:21:47.548Z,87
2018-11-26T22:27:11.052Z,87
2018-11-26T22:32:38.931Z,87
2018-11-26T22:38:07.278Z,87
2018-11-26T22:43:35.469Z,87
2018-11-26T22:49:03.356Z,87
2018-11-26T22:54:30.749Z,87
2018-11-26T22:59:57.926Z,87
2018-11-26T23:05:24.780Z,87
2018-11-26T23:10:58.231Z,87
2018-11-26T23:16:21.360Z,87
2018-11-26T23:21:49.258Z,87
2018-11-26T23:27:21.732Z,87
2018-11-26T23:32:43.821Z,87
2018-11-26T23:38:11.953Z,87
2018-11-26T23:43:39.772Z,87
2018-11-26T23:49:08.193Z,87
2018-11-26T23:54:35.098Z,87
